createdAt,value
2019-03-29T00:02:14.090Z,84.39
2019-03-29T00:05:18.214Z,84.69
2019-03-29T00:08:21.531Z,84.30
2019-03-29T00:11:24.857Z,84.44
2019-03-29T00:14:28.192Z,84.88
2019-03-29T00:17:31.513Z,84.64
2019-03-29T00:20:34.836Z,85.13
2019-03-29T00:23:38.163Z,85.37
2019-03-29T00:26:41.482Z,84.55
2019-03-29T00:29:44.807Z,83.93
2019-03-29T00:32:48.133Z,83.45
2019-03-29T00:35:51.473Z,84.03
2019-03-29T00:38:54.796Z,84.15
2019-03-29T00:41:58.119Z,83.82
2019-03-29T00:45:01.485Z,83.46
2019-03-29T00:48:04.802Z,83.14
2019-03-29T00:51:08.145Z,83.60
2019-03-29T00:54:11.429Z,84.09
2019-03-29T00:57:14.759Z,83.81
2019-03-29T01:00:18.099Z,84.31
2019-03-29T01:03:21.436Z,84.00
2019-03-29T01:06:24.763Z,84.21
2019-03-29T01:09:28.090Z,84.51
2019-03-29T01:12:32.843Z,84.56
2019-03-29T01:15:36.320Z,84.37
2019-03-29T01:18:39.617Z,84.31
2019-03-29T01:21:43.003Z,84.23
2019-03-29T01:24:46.307Z,84.02
2019-03-29T01:27:49.633Z,84.37
2019-03-29T01:30:52.979Z,83.79
2019-03-29T01:33:56.373Z,84.34
2019-03-29T01:36:59.707Z,83.77
2019-03-29T01:40:03.579Z,84.00
2019-03-29T01:43:06.917Z,84.01
2019-03-29T01:46:10.292Z,83.66
2019-03-29T01:49:13.622Z,83.92
2019-03-29T01:52:16.971Z,83.66
2019-03-29T01:55:20.310Z,84.07
2019-03-29T01:58:24.357Z,83.97
2019-03-29T02:01:29.109Z,83.59
2019-03-29T02:04:32.512Z,83.05
2019-03-29T02:07:36.042Z,83.08
2019-03-29T02:10:39.957Z,83.39
2019-03-29T02:13:43.795Z,83.84
2019-03-29T02:16:47.161Z,84.51
2019-03-29T02:19:50.544Z,84.75
2019-03-29T02:22:53.900Z,84.79
2019-03-29T02:25:57.237Z,85.10
2019-03-29T02:29:00.570Z,85.26
2019-03-29T02:32:03.917Z,85.45
2019-03-29T02:35:07.885Z,85.51
2019-03-29T02:38:11.256Z,85.16
2019-03-29T02:41:14.559Z,85.00
2019-03-29T02:44:17.900Z,84.90
2019-03-29T02:47:21.681Z,85.02
2019-03-29T02:50:25.434Z,85.27
2019-03-29T02:53:28.796Z,85.47
2019-03-29T02:56:32.127Z,85.24
2019-03-29T02:59:35.457Z,85.12
2019-03-29T03:02:38.793Z,85.13
2019-03-29T03:05:42.110Z,84.53
2019-03-29T03:08:45.410Z,85.13
2019-03-29T03:11:48.702Z,85.48
2019-03-29T03:14:52.146Z,85.16
2019-03-29T03:17:55.414Z,84.91
2019-03-29T03:20:58.720Z,85.12
2019-03-29T03:24:02.148Z,84.71
2019-03-29T03:27:05.469Z,83.95
2019-03-29T03:30:10.235Z,83.87
2019-03-29T03:33:13.895Z,84.59
2019-03-29T03:36:17.195Z,85.62
2019-03-29T03:39:31.370Z,86.31
2019-03-29T03:42:25.631Z,85.35
2019-03-29T03:45:28.950Z,84.61
2019-03-29T03:48:32.259Z,84.69
2019-03-29T03:51:35.562Z,85.22
2019-03-29T03:54:38.874Z,85.24
2019-03-29T03:57:42.171Z,84.81
2019-03-29T04:00:53.648Z,84.06
2019-03-29T04:03:56.948Z,84.01
2019-03-29T04:07:00.407Z,83.90
2019-03-29T04:10:05.462Z,83.45
2019-03-29T04:13:08.765Z,83.76
2019-03-29T04:16:12.072Z,84.24
2019-03-29T04:19:15.398Z,84.80
2019-03-29T04:22:18.704Z,84.53
2019-03-29T04:25:22.221Z,84.33
2019-03-29T04:28:26.690Z,83.67
2019-03-29T04:31:29.985Z,83.91
2019-03-29T04:34:33.298Z,84.34
2019-03-29T04:37:36.586Z,84.18
2019-03-29T04:40:39.903Z,84.30
2019-03-29T04:43:43.202Z,84.91
2019-03-29T04:46:46.778Z,85.76
2019-03-29T04:49:50.079Z,86.05
2019-03-29T04:52:53.387Z,85.69
2019-03-29T04:55:57.607Z,85.49
2019-03-29T04:59:00.949Z,84.85
2019-03-29T05:02:04.277Z,84.37
2019-03-29T05:05:07.601Z,84.18
2019-03-29T05:08:10.893Z,84.37
2019-03-29T05:11:14.234Z,84.31
2019-03-29T05:14:17.566Z,84.60
2019-03-29T05:17:20.875Z,84.54
2019-03-29T05:20:24.256Z,83.82
2019-03-29T05:23:27.546Z,83.81
2019-03-29T05:26:30.929Z,83.80
2019-03-29T05:29:34.223Z,83.81
2019-03-29T05:32:37.531Z,84.25
2019-03-29T05:35:40.977Z,84.30
2019-03-29T05:38:44.392Z,83.68
2019-03-29T05:41:47.745Z,83.15
2019-03-29T05:44:51.025Z,83.28
2019-03-29T05:47:54.340Z,83.28
2019-03-29T05:50:57.664Z,83.11
2019-03-29T05:54:01.286Z,83.13
2019-03-29T05:57:05.096Z,82.61
2019-03-29T06:00:10.652Z,82.85
2019-03-29T06:03:14.007Z,83.38
2019-03-29T06:06:17.378Z,82.86
2019-03-29T06:09:20.746Z,84.69
2019-03-29T06:12:24.065Z,85.90
2019-03-29T06:15:27.370Z,86.36
2019-03-29T06:18:30.705Z,85.45
2019-03-29T06:21:34.010Z,84.25
2019-03-29T06:24:37.330Z,84.15
2019-03-29T06:27:40.636Z,83.83
2019-03-29T06:30:43.937Z,83.46
2019-03-29T06:33:47.446Z,83.09
2019-03-29T06:36:50.768Z,83.04
2019-03-29T06:39:54.084Z,83.59
2019-03-29T06:42:57.398Z,84.38
2019-03-29T06:46:00.772Z,84.23
2019-03-29T06:49:04.095Z,83.84
2019-03-29T06:52:07.404Z,82.92
2019-03-29T06:55:10.711Z,81.91
2019-03-29T06:58:14.014Z,81.68
2019-03-29T07:01:17.333Z,81.97
2019-03-29T07:04:20.645Z,81.99
2019-03-29T07:07:23.954Z,81.25
2019-03-29T07:10:27.323Z,81.93
2019-03-29T07:13:30.729Z,81.55
2019-03-29T07:16:34.261Z,81.58
2019-03-29T07:19:37.569Z,81.62
2019-03-29T07:22:40.929Z,82.80
2019-03-29T07:25:44.239Z,81.46
2019-03-29T07:28:47.577Z,83.05
2019-03-29T07:31:53.190Z,82.75
2019-03-29T07:34:55.925Z,83.25
2019-03-29T07:37:59.247Z,82.56
2019-03-29T07:41:02.626Z,83.08
2019-03-29T07:44:05.957Z,81.82
2019-03-29T07:47:09.320Z,80.88
2019-03-29T07:50:12.689Z,80.16
2019-03-29T07:53:15.986Z,80.40
2019-03-29T07:56:19.295Z,80.28
2019-03-29T07:59:23.360Z,80.04
2019-03-29T08:02:26.786Z,80.37
2019-03-29T08:05:30.102Z,79.35
2019-03-29T08:08:34.527Z,79.31
2019-03-29T08:11:46.118Z,78.97
2019-03-29T08:14:43.381Z,79.03
2019-03-29T08:17:46.696Z,79.50
2019-03-29T08:20:50.129Z,77.55
2019-03-29T08:23:53.435Z,77.41
2019-03-29T08:26:56.746Z,76.67
2019-03-29T08:30:00.095Z,75.79
2019-03-29T08:33:03.536Z,75.99
2019-03-29T08:36:06.855Z,76.28
2019-03-29T08:39:10.437Z,76.13
2019-03-29T08:42:13.735Z,75.38
2019-03-29T08:45:17.062Z,74.92
2019-03-29T08:48:20.359Z,74.38
2019-03-29T08:51:23.660Z,73.50
2019-03-29T08:54:26.961Z,71.61
2019-03-29T08:57:30.365Z,70.61
2019-03-29T09:00:33.746Z,69.41
2019-03-29T09:03:37.049Z,67.57
2019-03-29T09:06:52.455Z,66.63
2019-03-29T09:09:46.578Z,67.91
2019-03-29T09:12:49.978Z,67.81
2019-03-29T09:15:53.295Z,67.86
2019-03-29T09:18:56.657Z,68.17
2019-03-29T09:21:59.991Z,66.00
2019-03-29T09:25:03.754Z,66.15
2019-03-29T09:28:07.075Z,65.82
2019-03-29T09:31:10.586Z,65.82
2019-03-29T09:34:13.903Z,62.96
2019-03-29T09:37:18.568Z,61.72
2019-03-29T09:40:21.829Z,62.26
2019-03-29T09:43:26.769Z,58.88
2019-03-29T09:46:30.246Z,58.45
2019-03-29T09:49:33.581Z,56.01
2019-03-29T09:52:36.902Z,54.89
2019-03-29T09:55:40.197Z,57.46
2019-03-29T09:58:45.181Z,56.38
2019-03-29T10:01:48.728Z,55.04
2019-03-29T10:04:52.047Z,54.79
2019-03-29T10:07:55.386Z,53.30
2019-03-29T10:10:58.697Z,53.36
2019-03-29T10:14:02.025Z,52.49
2019-03-29T10:17:05.323Z,53.10
2019-03-29T10:20:08.662Z,53.50
2019-03-29T10:23:12.021Z,53.99
2019-03-29T10:26:15.314Z,53.07
2019-03-29T10:29:18.656Z,55.21
2019-03-29T10:32:21.976Z,56.26
2019-03-29T10:35:28.855Z,55.80
2019-03-29T10:38:32.339Z,56.07
2019-03-29T10:41:38.149Z,54.95
2019-03-29T10:44:40.739Z,54.86
2019-03-29T10:47:44.342Z,55.59
2019-03-29T10:50:47.658Z,56.30
2019-03-29T10:53:50.973Z,55.37
2019-03-29T10:56:54.309Z,55.45
2019-03-29T10:59:57.612Z,55.77
2019-03-29T11:03:00.911Z,55.82
2019-03-29T11:06:04.225Z,55.39
2019-03-29T11:09:08.535Z,53.28
2019-03-29T11:12:11.851Z,52.64
2019-03-29T11:15:15.159Z,51.82
2019-03-29T11:18:18.543Z,52.28
2019-03-29T11:21:21.903Z,53.60
2019-03-29T11:24:25.219Z,52.48
2019-03-29T11:27:28.628Z,49.89
2019-03-29T11:30:42.117Z,48.92
2019-03-29T11:33:37.061Z,49.84
2019-03-29T11:36:40.458Z,51.00
2019-03-29T11:39:43.764Z,51.85
2019-03-29T11:42:47.084Z,51.67
2019-03-29T11:45:55.615Z,54.54
2019-03-29T11:48:58.317Z,55.60
2019-03-29T11:52:01.668Z,53.31
2019-03-29T11:55:06.109Z,54.17
2019-03-29T11:58:09.456Z,53.33
2019-03-29T12:01:12.796Z,52.27
2019-03-29T12:04:16.152Z,52.51
2019-03-29T12:07:19.422Z,52.09
2019-03-29T12:10:22.747Z,51.02
2019-03-29T12:13:35.027Z,48.56
2019-03-29T12:16:31.134Z,48.39
2019-03-29T12:19:34.539Z,48.71
2019-03-29T12:22:38.028Z,47.73
2019-03-29T12:25:41.444Z,47.95
2019-03-29T12:28:44.838Z,45.65
2019-03-29T12:31:48.430Z,44.25
2019-03-29T12:34:51.825Z,44.18
2019-03-29T12:37:55.227Z,40.05
2019-03-29T12:40:58.630Z,35.23
2019-03-29T12:44:02.034Z,33.82
2019-03-29T12:47:05.425Z,32.70
2019-03-29T12:50:08.830Z,29.22
2019-03-29T12:53:12.223Z,29.29
2019-03-29T12:56:15.624Z,26.46
2019-03-29T12:59:19.025Z,26.73
2019-03-29T13:02:22.408Z,29.58
2019-03-29T13:05:25.813Z,32.18
2019-03-29T13:08:35.055Z,31.87
2019-03-29T13:11:42.431Z,30.67
2019-03-29T13:14:45.905Z,32.34
2019-03-29T13:17:49.289Z,33.91
2019-03-29T13:20:52.760Z,34.68
2019-03-29T13:23:56.143Z,35.93
2019-03-29T13:26:59.562Z,34.80
2019-03-29T13:30:02.970Z,39.01
2019-03-29T13:33:06.359Z,41.18
2019-03-29T13:36:09.762Z,43.90
2019-03-29T13:39:13.149Z,45.06
2019-03-29T13:42:16.543Z,47.01
2019-03-29T13:45:19.863Z,49.43
2019-03-29T13:48:23.242Z,48.23
2019-03-29T13:51:26.554Z,47.77
2019-03-29T13:54:29.867Z,48.46
2019-03-29T13:57:33.235Z,48.36
2019-03-29T14:00:36.542Z,47.55
2019-03-29T14:03:39.882Z,48.16
2019-03-29T14:06:43.217Z,48.22
2019-03-29T14:09:46.514Z,48.42
2019-03-29T14:12:49.837Z,48.99
2019-03-29T14:15:53.172Z,50.01
2019-03-29T14:18:56.502Z,50.11
2019-03-29T14:21:59.829Z,50.11
2019-03-29T14:25:03.149Z,50.31
2019-03-29T14:28:06.502Z,50.74
2019-03-29T14:32:38.030Z,49.35
2019-03-29T14:35:41.354Z,50.78
2019-03-29T14:38:44.686Z,51.80
2019-03-29T14:41:48.126Z,51.00
2019-03-29T14:44:52.993Z,51.63
2019-03-29T14:47:56.649Z,51.02
2019-03-29T14:50:59.957Z,51.98
2019-03-29T14:54:03.284Z,52.26
2019-03-29T14:57:06.612Z,51.85
2019-03-29T15:00:10.861Z,52.63
2019-03-29T15:03:14.201Z,52.92
2019-03-29T15:06:17.495Z,52.75
2019-03-29T15:09:20.812Z,52.77
2019-03-29T15:12:24.109Z,52.33
2019-03-29T15:15:27.440Z,53.22
2019-03-29T15:18:30.727Z,53.47
2019-03-29T15:21:34.100Z,53.29
2019-03-29T15:24:37.484Z,54.09
2019-03-29T15:27:40.782Z,54.10
2019-03-29T15:30:44.095Z,54.36
2019-03-29T15:33:47.499Z,54.11
2019-03-29T15:36:50.793Z,54.60
2019-03-29T15:39:54.131Z,54.52
2019-03-29T15:42:57.773Z,54.40
2019-03-29T15:46:02.015Z,54.87
2019-03-29T15:49:05.330Z,54.61
2019-03-29T15:52:08.639Z,54.70
2019-03-29T15:55:12.023Z,54.68
2019-03-29T15:58:15.294Z,54.77
2019-03-29T16:01:18.618Z,54.85
2019-03-29T16:04:21.910Z,55.17
2019-03-29T16:07:25.302Z,55.58
2019-03-29T16:10:28.607Z,56.73
2019-03-29T16:13:31.922Z,56.18
2019-03-29T16:16:35.262Z,56.45
2019-03-29T16:19:38.583Z,56.77
2019-03-29T16:22:41.959Z,55.54
2019-03-29T16:25:45.418Z,56.80
2019-03-29T16:28:48.731Z,56.22
2019-03-29T16:31:52.037Z,56.34
2019-03-29T16:34:55.332Z,57.23
2019-03-29T16:37:58.647Z,57.06
2019-03-29T16:41:01.947Z,57.21
2019-03-29T16:44:05.422Z,56.98
2019-03-29T16:47:08.756Z,57.20
2019-03-29T16:50:12.084Z,57.19
2019-03-29T16:53:15.455Z,57.57
2019-03-29T16:56:18.762Z,58.20
2019-03-29T16:59:22.084Z,58.39
2019-03-29T17:02:25.394Z,58.65
2019-03-29T17:05:28.865Z,58.72
2019-03-29T17:08:32.208Z,58.60
2019-03-29T17:11:35.657Z,58.66
2019-03-29T17:14:39.024Z,60.34
2019-03-29T17:17:42.348Z,60.34
2019-03-29T17:20:45.740Z,59.87
2019-03-29T17:23:52.423Z,60.41
2019-03-29T17:26:54.021Z,60.51
2019-03-29T17:29:57.326Z,61.13
2019-03-29T17:33:00.617Z,61.54
2019-03-29T17:36:04.004Z,61.90
2019-03-29T17:39:07.425Z,61.91
2019-03-29T17:42:10.759Z,62.40
2019-03-29T17:45:14.075Z,63.13
2019-03-29T17:48:17.368Z,63.52
2019-03-29T17:51:20.696Z,64.00
2019-03-29T17:54:23.992Z,64.30
2019-03-29T17:57:27.476Z,73.34
2019-03-29T18:00:30.791Z,64.49
2019-03-29T18:03:34.116Z,64.58
2019-03-29T18:06:37.516Z,65.16
2019-03-29T18:09:40.811Z,65.75
2019-03-29T18:12:44.133Z,73.07
2019-03-29T18:15:47.437Z,63.61
2019-03-29T18:18:50.786Z,63.43
2019-03-29T18:21:54.127Z,65.61
2019-03-29T18:24:57.552Z,65.54
2019-03-29T18:28:00.889Z,69.41
2019-03-29T18:31:04.204Z,73.52
2019-03-29T18:34:07.601Z,65.89
2019-03-29T18:37:10.990Z,65.91
2019-03-29T18:40:17.639Z,66.60
2019-03-29T18:43:20.964Z,67.69
2019-03-29T18:46:24.275Z,68.19
2019-03-29T18:49:27.563Z,68.92
2019-03-29T18:52:30.892Z,69.25
2019-03-29T18:55:34.342Z,69.72
2019-03-29T18:58:37.644Z,70.38
2019-03-29T19:01:41.084Z,70.59
2019-03-29T19:04:44.427Z,70.86
2019-03-29T19:07:47.743Z,71.15
2019-03-29T19:10:51.045Z,71.43
2019-03-29T19:13:54.375Z,71.44
2019-03-29T19:16:59.140Z,71.35
2019-03-29T19:20:03.903Z,71.48
2019-03-29T19:23:07.235Z,71.41
2019-03-29T19:26:10.581Z,72.15
2019-03-29T19:29:13.907Z,72.39
2019-03-29T19:32:17.213Z,72.28
2019-03-29T19:35:20.549Z,72.52
2019-03-29T19:38:23.875Z,72.40
2019-03-29T19:41:27.156Z,72.78
2019-03-29T19:44:30.468Z,72.78
2019-03-29T19:47:33.778Z,73.18
2019-03-29T19:50:37.091Z,73.50
2019-03-29T19:53:40.404Z,73.85
2019-03-29T19:56:43.727Z,73.87
2019-03-29T19:59:48.325Z,73.97
2019-03-29T20:02:52.068Z,74.58
2019-03-29T20:05:55.390Z,74.91
2019-03-29T20:09:01.041Z,74.90
2019-03-29T20:12:04.188Z,74.55
2019-03-29T20:15:07.557Z,74.72
2019-03-29T20:18:11.087Z,74.60
2019-03-29T20:21:14.411Z,74.93
2019-03-29T20:24:17.756Z,75.25
2019-03-29T20:27:21.205Z,75.42
2019-03-29T20:30:25.068Z,75.54
2019-03-29T20:33:28.378Z,75.53
2019-03-29T20:36:31.686Z,75.29
2019-03-29T20:39:35.064Z,75.06
2019-03-29T20:42:38.327Z,75.13
2019-03-29T20:45:41.640Z,75.07
2019-03-29T20:48:44.973Z,75.42
2019-03-29T20:51:48.277Z,75.31
2019-03-29T20:54:52.095Z,75.97
2019-03-29T20:57:55.434Z,75.98
2019-03-29T21:00:58.766Z,76.28
2019-03-29T21:04:02.282Z,75.79
2019-03-29T21:07:05.589Z,76.20
2019-03-29T21:10:09.035Z,76.88
2019-03-29T21:13:12.324Z,77.01
2019-03-29T21:16:15.680Z,76.44
2019-03-29T21:19:19.049Z,75.87
2019-03-29T21:22:23.983Z,76.17
2019-03-29T21:25:27.334Z,76.56
2019-03-29T21:28:30.711Z,76.73
2019-03-29T21:31:34.116Z,76.42
2019-03-29T21:34:37.454Z,76.74
2019-03-29T21:37:40.790Z,77.24
2019-03-29T21:40:44.126Z,77.46
2019-03-29T21:43:47.471Z,77.41
2019-03-29T21:46:50.796Z,77.29
2019-03-29T21:49:54.136Z,77.17
2019-03-29T21:52:57.441Z,77.37
2019-03-29T21:56:00.798Z,77.31
2019-03-29T21:59:04.144Z,77.58
2019-03-29T22:02:07.466Z,77.34
2019-03-29T22:05:10.908Z,77.69
2019-03-29T22:08:17.755Z,77.43
2019-03-29T22:11:19.536Z,78.04
2019-03-29T22:14:22.893Z,78.16
2019-03-29T22:17:26.284Z,78.53
2019-03-29T22:20:29.633Z,79.19
2019-03-29T22:23:33.528Z,79.72
2019-03-29T22:26:37.026Z,79.29
2019-03-29T22:29:40.646Z,79.07
2019-03-29T22:32:44.055Z,78.86
2019-03-29T22:35:47.406Z,78.57
2019-03-29T22:38:50.722Z,78.09
2019-03-29T22:41:54.041Z,78.38
2019-03-29T22:44:57.452Z,78.60
2019-03-29T22:48:03.015Z,78.89
2019-03-29T22:51:05.877Z,79.35
2019-03-29T22:54:09.217Z,78.31
2019-03-29T22:57:12.561Z,78.35
2019-03-29T23:00:26.632Z,79.33
2019-03-29T23:03:29.993Z,78.88
2019-03-29T23:06:37.627Z,79.45
2019-03-29T23:09:44.379Z,80.13
2019-03-29T23:12:52.216Z,80.38
2019-03-29T23:15:58.455Z,80.19
2019-03-29T23:19:06.694Z,80.23
2019-03-29T23:22:07.028Z,79.99
2019-03-29T23:25:10.373Z,79.80
2019-03-29T23:28:13.697Z,79.77
2019-03-29T23:31:17.019Z,80.05
2019-03-29T23:34:20.433Z,80.40
2019-03-29T23:37:23.782Z,80.61
2019-03-29T23:40:27.089Z,80.58
2019-03-29T23:43:30.426Z,80.45
2019-03-29T23:46:33.793Z,81.26
2019-03-29T23:49:37.225Z,81.52
2019-03-29T23:52:42.073Z,81.58
2019-03-29T23:55:45.416Z,81.67
2019-03-29T23:58:48.722Z,81.67
